sensor_id;sensor_type;location;lat;lon;timestamp;P1;P2;P0
34240;PMS7003;20503;50.200;19.508;2023-06-14T00:01:26;8;6;5
34240;PMS7003;20503;50.200;19.508;2023-06-14T00:06:34;18;9;5
34240;PMS7003;20503;50.200;19.508;2023-06-14T00:11:42;10;7;4
34240;PMS7003;20503;50.200;19.508;2023-06-14T00:16:51;5;4;2
34240;PMS7003;20503;50.200;19.508;2023-06-14T00:21:57;9;6;4
34240;PMS7003;20503;50.200;19.508;2023-06-14T00:27:05;9;5;4
34240;PMS7003;20503;50.200;19.508;2023-06-14T00:32:12;7;5;2
34240;PMS7003;20503;50.200;19.508;2023-06-14T00:37:20;8;6;4
34240;PMS7003;20503;50.200;19.508;2023-06-14T00:42:27;6;6;4
34240;PMS7003;20503;50.200;19.508;2023-06-14T00:47:35;8;6;4
34240;PMS7003;20503;50.200;19.508;2023-06-14T00:52:43;11;6;4
34240;PMS7003;20503;50.200;19.508;2023-06-14T00:57:51;8;6;4
34240;PMS7003;20503;50.200;19.508;2023-06-14T01:02:58;10;6;5
34240;PMS7003;20503;50.200;19.508;2023-06-14T01:08:18;9;7;4
34240;PMS7003;20503;50.200;19.508;2023-06-14T01:13:23;9;8;5
34240;PMS7003;20503;50.200;19.508;2023-06-14T01:18:34;7;7;4
34240;PMS7003;20503;50.200;19.508;2023-06-14T01:23:36;8;6;5
34240;PMS7003;20503;50.200;19.508;2023-06-14T01:28:37;8;6;4
34240;PMS7003;20503;50.200;19.508;2023-06-14T01:33:45;10;7;5
34240;PMS7003;20503;50.200;19.508;2023-06-14T01:38:53;9;8;4
34240;PMS7003;20503;50.200;19.508;2023-06-14T01:44:00;8;7;6
34240;PMS7003;20503;50.200;19.508;2023-06-14T01:49:08;6;6;5
34240;PMS7003;20503;50.200;19.508;2023-06-14T01:54:17;10;8;6
34240;PMS7003;20503;50.200;19.508;2023-06-14T01:59:23;9;6;5
34240;PMS7003;20503;50.200;19.508;2023-06-14T02:04:31;9;6;4
34240;PMS7003;20503;50.200;19.508;2023-06-14T02:09:42;7;6;5
34240;PMS7003;20503;50.200;19.508;2023-06-14T02:14:46;10;6;4
34240;PMS7003;20503;50.200;19.508;2023-06-14T02:19:54;8;7;5
34240;PMS7003;20503;50.200;19.508;2023-06-14T02:25:01;10;8;6
34240;PMS7003;20503;50.200;19.508;2023-06-14T02:30:09;7;5;4
34240;PMS7003;20503;50.200;19.508;2023-06-14T02:35:16;10;7;4
34240;PMS7003;20503;50.200;19.508;2023-06-14T02:40:24;8;6;4
34240;PMS7003;20503;50.200;19.508;2023-06-14T02:45:31;9;7;4
34240;PMS7003;20503;50.200;19.508;2023-06-14T02:50:39;6;6;4
34240;PMS7003;20503;50.200;19.508;2023-06-14T02:55:46;8;7;5
34240;PMS7003;20503;50.200;19.508;2023-06-14T03:00:54;10;8;6
34240;PMS7003;20503;50.200;19.508;2023-06-14T03:06:01;9;6;5
34240;PMS7003;20503;50.200;19.508;2023-06-14T03:11:09;7;6;5
34240;PMS7003;20503;50.200;19.508;2023-06-14T03:16:17;10;7;4
34240;PMS7003;20503;50.200;19.508;2023-06-14T03:21:25;10;6;4
34240;PMS7003;20503;50.200;19.508;2023-06-14T03:26:33;7;5;3
34240;PMS7003;20503;50.200;19.508;2023-06-14T03:31:55;6;5;4
34240;PMS7003;20503;50.200;19.508;2023-06-14T03:36:52;9;7;5
34240;PMS7003;20503;50.200;19.508;2023-06-14T03:41:55;7;7;5
34240;PMS7003;20503;50.200;19.508;2023-06-14T03:47:03;12;8;4
34240;PMS7003;20503;50.200;19.508;2023-06-14T03:52:11;8;8;5
34240;PMS7003;20503;50.200;19.508;2023-06-14T03:57:18;14;8;6
34240;PMS7003;20503;50.200;19.508;2023-06-14T04:02:25;12;9;6
34240;PMS7003;20503;50.200;19.508;2023-06-14T04:07:33;7;6;5
34240;PMS7003;20503;50.200;19.508;2023-06-14T04:12:44;9;6;4
34240;PMS7003;20503;50.200;19.508;2023-06-14T04:17:48;10;7;6
34240;PMS7003;20503;50.200;19.508;2023-06-14T04:22:56;12;8;5
34240;PMS7003;20503;50.200;19.508;2023-06-14T04:28:03;9;7;6
34240;PMS7003;20503;50.200;19.508;2023-06-14T04:33:11;10;9;5
34240;PMS7003;20503;50.200;19.508;2023-06-14T04:38:19;12;7;6
34240;PMS7003;20503;50.200;19.508;2023-06-14T04:43:27;13;8;6
34240;PMS7003;20503;50.200;19.508;2023-06-14T04:48:34;8;7;5
34240;PMS7003;20503;50.200;19.508;2023-06-14T04:53:42;7;7;5
34240;PMS7003;20503;50.200;19.508;2023-06-14T04:58:50;11;11;6
34240;PMS7003;20503;50.200;19.508;2023-06-14T05:03:58;9;8;6
34240;PMS7003;20503;50.200;19.508;2023-06-14T05:09:06;11;9;5
34240;PMS7003;20503;50.200;19.508;2023-06-14T05:14:13;12;7;6
34240;PMS7003;20503;50.200;19.508;2023-06-14T05:19:22;12;8;5
34240;PMS7003;20503;50.200;19.508;2023-06-14T05:24:29;9;7;6
34240;PMS7003;20503;50.200;19.508;2023-06-14T05:29:37;13;9;6
34240;PMS7003;20503;50.200;19.508;2023-06-14T05:34:45;11;8;6
34240;PMS7003;20503;50.200;19.508;2023-06-14T05:39:54;8;6;4
34240;PMS7003;20503;50.200;19.508;2023-06-14T05:45:01;8;6;4
34240;PMS7003;20503;50.200;19.508;2023-06-14T05:50:09;6;4;3
34240;PMS7003;20503;50.200;19.508;2023-06-14T05:55:17;2;2;2
34240;PMS7003;20503;50.200;19.508;2023-06-14T06:00:26;3;2;2
34240;PMS7003;20503;50.200;19.508;2023-06-14T06:05:34;2;2;2
34240;PMS7003;20503;50.200;19.508;2023-06-14T06:10:42;2;1;1
34240;PMS7003;20503;50.200;19.508;2023-06-14T06:15:50;4;3;2
34240;PMS7003;20503;50.200;19.508;2023-06-14T06:20:58;2;2;1
34240;PMS7003;20503;50.200;19.508;2023-06-14T06:26:06;3;2;2
34240;PMS7003;20503;50.200;19.508;2023-06-14T06:31:14;2;2;2
34240;PMS7003;20503;50.200;19.508;2023-06-14T06:36:22;3;2;1
34240;PMS7003;20503;50.200;19.508;2023-06-14T06:41:30;2;2;2
34240;PMS7003;20503;50.200;19.508;2023-06-14T06:46:38;3;2;2
34240;PMS7003;20503;50.200;19.508;2023-06-14T06:51:58;4;2;2
34240;PMS7003;20503;50.200;19.508;2023-06-14T06:56:58;2;2;2
34240;PMS7003;20503;50.200;19.508;2023-06-14T07:02:02;4;2;2
34240;PMS7003;20503;50.200;19.508;2023-06-14T07:07:09;3;2;2
34240;PMS7003;20503;50.200;19.508;2023-06-14T07:12:17;2;2;2
34240;PMS7003;20503;50.200;19.508;2023-06-14T07:17:25;3;3;2
34240;PMS7003;20503;50.200;19.508;2023-06-14T07:22:33;3;3;2
34240;PMS7003;20503;50.200;19.508;2023-06-14T07:27:41;3;3;2
34240;PMS7003;20503;50.200;19.508;2023-06-14T07:32:49;2;2;2
34240;PMS7003;20503;50.200;19.508;2023-06-14T07:37:57;2;2;2
34240;PMS7003;20503;50.200;19.508;2023-06-14T07:47:03;3;3;2
34240;PMS7003;20503;50.200;19.508;2023-06-14T07:52:11;4;3;2
34240;PMS7003;20503;50.200;19.508;2023-06-14T07:57:19;5;4;3
34240;PMS7003;20503;50.200;19.508;2023-06-14T08:02:27;6;4;3
34240;PMS7003;20503;50.200;19.508;2023-06-14T08:07:35;3;2;2
34240;PMS7003;20503;50.200;19.508;2023-06-14T08:12:43;2;2;2
34240;PMS7003;20503;50.200;19.508;2023-06-14T08:17:51;2;2;2
34240;PMS7003;20503;50.200;19.508;2023-06-14T08:22:59;2;2;2
34240;PMS7003;20503;50.200;19.508;2023-06-14T08:28:07;2;2;2
34240;PMS7003;20503;50.200;19.508;2023-06-14T08:38:28;2;2;1
34240;PMS7003;20503;50.200;19.508;2023-06-14T08:43:30;1;1;1
34240;PMS7003;20503;50.200;19.508;2023-06-14T08:48:38;2;2;1
34240;PMS7003;20503;50.200;19.508;2023-06-14T08:53:45;1;1;1
34240;PMS7003;20503;50.200;19.508;2023-06-14T08:58:54;1;1;0
34240;PMS7003;20503;50.200;19.508;2023-06-14T09:04:02;3;1;1
34240;PMS7003;20503;50.200;19.508;2023-06-14T09:09:09;1;1;1
34240;PMS7003;20503;50.200;19.508;2023-06-14T09:14:18;0;0;0
34240;PMS7003;20503;50.200;19.508;2023-06-14T09:19:25;1;1;1
34240;PMS7003;20503;50.200;19.508;2023-06-14T09:24:33;1;1;1
34240;PMS7003;20503;50.200;19.508;2023-06-14T09:29:41;0;0;0
34240;PMS7003;20503;50.200;19.508;2023-06-14T09:34:49;0;0;0
34240;PMS7003;20503;50.200;19.508;2023-06-14T09:39:57;1;1;0
34240;PMS7003;20503;50.200;19.508;2023-06-14T09:45:05;1;1;1
34240;PMS7003;20503;50.200;19.508;2023-06-14T09:50:13;2;2;2
34240;PMS7003;20503;50.200;19.508;2023-06-14T09:55:21;3;2;2
34240;PMS7003;20503;50.200;19.508;2023-06-14T10:00:29;2;2;2
34240;PMS7003;20503;50.200;19.508;2023-06-14T10:05:37;2;2;2
34240;PMS7003;20503;50.200;19.508;2023-06-14T10:10:44;3;2;2
34240;PMS7003;20503;50.200;19.508;2023-06-14T10:16:00;4;4;2
34240;PMS7003;20503;50.200;19.508;2023-06-14T10:26:21;7;4;4
34240;PMS7003;20503;50.200;19.508;2023-06-14T10:31:23;3;3;2
34240;PMS7003;20503;50.200;19.508;2023-06-14T10:36:36;4;3;2
34240;PMS7003;20503;50.200;19.508;2023-06-14T10:41:41;3;3;2
34240;PMS7003;20503;50.200;19.508;2023-06-14T10:46:48;8;7;5
34240;PMS7003;20503;50.200;19.508;2023-06-14T10:51:53;8;6;4
34240;PMS7003;20503;50.200;19.508;2023-06-14T10:56:58;2;2;2
34240;PMS7003;20503;50.200;19.508;2023-06-14T11:07:27;5;3;2
34240;PMS7003;20503;50.200;19.508;2023-06-14T11:12:29;4;4;2
34240;PMS7003;20503;50.200;19.508;2023-06-14T11:17:36;3;3;2
34240;PMS7003;20503;50.200;19.508;2023-06-14T11:27:45;2;2;2
34240;PMS7003;20503;50.200;19.508;2023-06-14T11:32:49;3;3;3
34240;PMS7003;20503;50.200;19.508;2023-06-14T11:37:57;4;4;3
34240;PMS7003;20503;50.200;19.508;2023-06-14T11:43:05;6;5;4
34240;PMS7003;20503;50.200;19.508;2023-06-14T11:48:12;4;4;3
34240;PMS7003;20503;50.200;19.508;2023-06-14T11:53:20;5;4;3
34240;PMS7003;20503;50.200;19.508;2023-06-14T11:58:29;6;4;3
34240;PMS7003;20503;50.200;19.508;2023-06-14T12:03:36;7;4;4
34240;PMS7003;20503;50.200;19.508;2023-06-14T12:08:44;4;4;4
34240;PMS7003;20503;50.200;19.508;2023-06-14T12:13:51;6;6;4
34240;PMS7003;20503;50.200;19.508;2023-06-14T12:19:00;5;4;4
34240;PMS7003;20503;50.200;19.508;2023-06-14T12:24:07;4;4;3
34240;PMS7003;20503;50.200;19.508;2023-06-14T12:29:15;6;5;4
34240;PMS7003;20503;50.200;19.508;2023-06-14T12:34:26;4;4;3
34240;PMS7003;20503;50.200;19.508;2023-06-14T12:39:31;5;4;3
34240;PMS7003;20503;50.200;19.508;2023-06-14T12:44:38;4;4;3
34240;PMS7003;20503;50.200;19.508;2023-06-14T12:49:46;5;5;4
34240;PMS7003;20503;50.200;19.508;2023-06-14T12:54:54;6;4;4
34240;PMS7003;20503;50.200;19.508;2023-06-14T13:00:02;4;4;4
34240;PMS7003;20503;50.200;19.508;2023-06-14T13:05:09;5;5;3
34240;PMS7003;20503;50.200;19.508;2023-06-14T13:10:17;6;6;4
34240;PMS7003;20503;50.200;19.508;2023-06-14T13:15:26;5;4;3
34240;PMS7003;20503;50.200;19.508;2023-06-14T13:20:33;7;5;3
34240;PMS7003;20503;50.200;19.508;2023-06-14T13:25:41;4;4;3
34240;PMS7003;20503;50.200;19.508;2023-06-14T13:30:49;4;4;3
34240;PMS7003;20503;50.200;19.508;2023-06-14T13:35:56;4;4;4
34240;PMS7003;20503;50.200;19.508;2023-06-14T13:41:04;6;5;4
34240;PMS7003;20503;50.200;19.508;2023-06-14T13:46:12;8;5;4
34240;PMS7003;20503;50.200;19.508;2023-06-14T13:51:20;6;6;4
34240;PMS7003;20503;50.200;19.508;2023-06-14T13:56:27;6;5;4
34240;PMS7003;20503;50.200;19.508;2023-06-14T14:01:35;5;4;3
34240;PMS7003;20503;50.200;19.508;2023-06-14T14:06:43;5;5;4
34240;PMS7003;20503;50.200;19.508;2023-06-14T14:11:51;5;5;4
34240;PMS7003;20503;50.200;19.508;2023-06-14T14:16:58;7;6;5
34240;PMS7003;20503;50.200;19.508;2023-06-14T14:22:06;6;6;4
34240;PMS7003;20503;50.200;19.508;2023-06-14T14:27:14;5;4;2
34240;PMS7003;20503;50.200;19.508;2023-06-14T14:32:22;4;4;3
34240;PMS7003;20503;50.200;19.508;2023-06-14T14:37:30;4;4;4
34240;PMS7003;20503;50.200;19.508;2023-06-14T14:42:37;4;4;3
34240;PMS7003;20503;50.200;19.508;2023-06-14T14:47:45;4;2;2
34240;PMS7003;20503;50.200;19.508;2023-06-14T14:52:53;4;4;3
34240;PMS7003;20503;50.200;19.508;2023-06-14T14:58:00;3;3;2
34240;PMS7003;20503;50.200;19.508;2023-06-14T15:03:08;4;2;2
34240;PMS7003;20503;50.200;19.508;2023-06-14T15:08:16;4;3;3
34240;PMS7003;20503;50.200;19.508;2023-06-14T15:13:24;4;4;3
34240;PMS7003;20503;50.200;19.508;2023-06-14T15:18:31;7;4;4
34240;PMS7003;20503;50.200;19.508;2023-06-14T15:23:39;4;4;3
34240;PMS7003;20503;50.200;19.508;2023-06-14T15:28:46;5;4;4
34240;PMS7003;20503;50.200;19.508;2023-06-14T15:33:54;4;4;4
34240;PMS7003;20503;50.200;19.508;2023-06-14T15:39:02;5;4;3
34240;PMS7003;20503;50.200;19.508;2023-06-14T15:44:10;4;4;4
34240;PMS7003;20503;50.200;19.508;2023-06-14T15:49:17;4;4;4
34240;PMS7003;20503;50.200;19.508;2023-06-14T15:54:25;5;5;4
34240;PMS7003;20503;50.200;19.508;2023-06-14T15:59:33;4;4;4
34240;PMS7003;20503;50.200;19.508;2023-06-14T16:04:41;5;4;3
34240;PMS7003;20503;50.200;19.508;2023-06-14T16:09:49;4;4;2
34240;PMS7003;20503;50.200;19.508;2023-06-14T16:14:56;9;6;4
34240;PMS7003;20503;50.200;19.508;2023-06-14T16:20:05;6;6;3
34240;PMS7003;20503;50.200;19.508;2023-06-14T16:25:12;4;4;3
34240;PMS7003;20503;50.200;19.508;2023-06-14T16:30:20;4;4;3
34240;PMS7003;20503;50.200;19.508;2023-06-14T16:35:28;8;6;4
34240;PMS7003;20503;50.200;19.508;2023-06-14T16:40:36;5;5;4
34240;PMS7003;20503;50.200;19.508;2023-06-14T16:45:43;7;6;4
34240;PMS7003;20503;50.200;19.508;2023-06-14T16:50:51;7;4;4
34240;PMS7003;20503;50.200;19.508;2023-06-14T16:55:59;8;4;4
34240;PMS7003;20503;50.200;19.508;2023-06-14T17:01:07;9;6;4
34240;PMS7003;20503;50.200;19.508;2023-06-14T17:06:15;5;4;4
34240;PMS7003;20503;50.200;19.508;2023-06-14T17:11:23;18;13;11
34240;PMS7003;20503;50.200;19.508;2023-06-14T17:16:30;10;7;5
34240;PMS7003;20503;50.200;19.508;2023-06-14T17:21:38;10;8;7
34240;PMS7003;20503;50.200;19.508;2023-06-14T17:26:46;17;12;8
34240;PMS7003;20503;50.200;19.508;2023-06-14T17:31:54;13;9;7
34240;PMS7003;20503;50.200;19.508;2023-06-14T17:37:02;9;8;6
34240;PMS7003;20503;50.200;19.508;2023-06-14T17:42:09;11;10;6
34240;PMS7003;20503;50.200;19.508;2023-06-14T17:47:19;9;8;6
34240;PMS7003;20503;50.200;19.508;2023-06-14T17:52:25;6;6;6
34240;PMS7003;20503;50.200;19.508;2023-06-14T17:57:32;6;6;5
34240;PMS7003;20503;50.200;19.508;2023-06-14T18:02:40;7;7;4
34240;PMS7003;20503;50.200;19.508;2023-06-14T18:07:48;6;6;4
34240;PMS7003;20503;50.200;19.508;2023-06-14T18:12:56;7;6;4
34240;PMS7003;20503;50.200;19.508;2023-06-14T18:18:03;6;6;4
34240;PMS7003;20503;50.200;19.508;2023-06-14T18:23:11;5;5;4
34240;PMS7003;20503;50.200;19.508;2023-06-14T18:28:20;7;6;5
34240;PMS7003;20503;50.200;19.508;2023-06-14T18:33:28;7;6;5
34240;PMS7003;20503;50.200;19.508;2023-06-14T18:38:36;7;7;5
34240;PMS7003;20503;50.200;19.508;2023-06-14T18:43:45;9;8;6
34240;PMS7003;20503;50.200;19.508;2023-06-14T18:48:52;8;8;5
34240;PMS7003;20503;50.200;19.508;2023-06-14T18:54:00;10;6;5
34240;PMS7003;20503;50.200;19.508;2023-06-14T18:59:08;9;8;6
34240;PMS7003;20503;50.200;19.508;2023-06-14T19:04:15;11;9;7
34240;PMS7003;20503;50.200;19.508;2023-06-14T19:09:23;6;6;5
34240;PMS7003;20503;50.200;19.508;2023-06-14T19:14:31;11;8;7
34240;PMS7003;20503;50.200;19.508;2023-06-14T19:19:39;8;8;6
34240;PMS7003;20503;50.200;19.508;2023-06-14T19:24:47;10;9;7
34240;PMS7003;20503;50.200;19.508;2023-06-14T19:29:56;9;8;6
34240;PMS7003;20503;50.200;19.508;2023-06-14T19:35:04;13;8;6
34240;PMS7003;20503;50.200;19.508;2023-06-14T19:40:11;10;8;6
34240;PMS7003;20503;50.200;19.508;2023-06-14T19:45:19;11;9;7
34240;PMS7003;20503;50.200;19.508;2023-06-14T19:50:27;14;12;9
34240;PMS7003;20503;50.200;19.508;2023-06-14T19:55:34;15;13;10
34240;PMS7003;20503;50.200;19.508;2023-06-14T20:00:42;21;17;11
34240;PMS7003;20503;50.200;19.508;2023-06-14T20:05:50;17;16;12
34240;PMS7003;20503;50.200;19.508;2023-06-14T20:10:58;19;15;11
34240;PMS7003;20503;50.200;19.508;2023-06-14T20:16:06;13;12;9
34240;PMS7003;20503;50.200;19.508;2023-06-14T20:21:14;21;17;11
34240;PMS7003;20503;50.200;19.508;2023-06-14T20:26:22;15;14;10
34240;PMS7003;20503;50.200;19.508;2023-06-14T20:31:29;18;15;12
34240;PMS7003;20503;50.200;19.508;2023-06-14T20:36:37;23;20;13
34240;PMS7003;20503;50.200;19.508;2023-06-14T20:41:45;24;22;15
34240;PMS7003;20503;50.200;19.508;2023-06-14T20:46:53;27;22;14
34240;PMS7003;20503;50.200;19.508;2023-06-14T20:52:01;21;20;14
34240;PMS7003;20503;50.200;19.508;2023-06-14T20:57:09;33;24;15
34240;PMS7003;20503;50.200;19.508;2023-06-14T21:02:18;15;13;9
34240;PMS7003;20503;50.200;19.508;2023-06-14T21:07:24;14;13;9
34240;PMS7003;20503;50.200;19.508;2023-06-14T21:12:32;13;12;8
34240;PMS7003;20503;50.200;19.508;2023-06-14T21:17:40;14;12;8
34240;PMS7003;20503;50.200;19.508;2023-06-14T21:22:48;14;12;10
34240;PMS7003;20503;50.200;19.508;2023-06-14T21:27:56;13;10;8
34240;PMS7003;20503;50.200;19.508;2023-06-14T21:33:05;12;12;10
34240;PMS7003;20503;50.200;19.508;2023-06-14T21:38:12;19;18;12
34240;PMS7003;20503;50.200;19.508;2023-06-14T21:43:20;22;19;13
34240;PMS7003;20503;50.200;19.508;2023-06-14T21:48:28;16;14;8
34240;PMS7003;20503;50.200;19.508;2023-06-14T21:53:36;17;15;9
34240;PMS7003;20503;50.200;19.508;2023-06-14T21:58:44;21;15;10
34240;PMS7003;20503;50.200;19.508;2023-06-14T22:03:52;17;15;10
34240;PMS7003;20503;50.200;19.508;2023-06-14T22:09:00;12;11;8
34240;PMS7003;20503;50.200;19.508;2023-06-14T22:14:08;13;13;8
34240;PMS7003;20503;50.200;19.508;2023-06-14T22:19:15;13;11;8
34240;PMS7003;20503;50.200;19.508;2023-06-14T22:24:23;12;11;8
34240;PMS7003;20503;50.200;19.508;2023-06-14T22:29:30;13;10;8
34240;PMS7003;20503;50.200;19.508;2023-06-14T22:34:38;12;11;8
34240;PMS7003;20503;50.200;19.508;2023-06-14T22:39:46;12;11;8
34240;PMS7003;20503;50.200;19.508;2023-06-14T22:44:54;15;12;9
34240;PMS7003;20503;50.200;19.508;2023-06-14T22:50:01;12;10;8
34240;PMS7003;20503;50.200;19.508;2023-06-14T22:55:09;15;13;8
34240;PMS7003;20503;50.200;19.508;2023-06-14T23:00:17;13;11;8
34240;PMS7003;20503;50.200;19.508;2023-06-14T23:05:24;12;10;8
34240;PMS7003;20503;50.200;19.508;2023-06-14T23:10:32;13;12;7
34240;PMS7003;20503;50.200;19.508;2023-06-14T23:15:39;8;8;6
34240;PMS7003;20503;50.200;19.508;2023-06-14T23:20:47;12;10;7
34240;PMS7003;20503;50.200;19.508;2023-06-14T23:25:55;15;10;8
34240;PMS7003;20503;50.200;19.508;2023-06-14T23:31:03;18;14;8
34240;PMS7003;20503;50.200;19.508;2023-06-14T23:36:11;14;13;8
34240;PMS7003;20503;50.200;19.508;2023-06-14T23:41:19;18;15;9
34240;PMS7003;20503;50.200;19.508;2023-06-14T23:46:30;14;14;8
34240;PMS7003;20503;50.200;19.508;2023-06-14T23:51:35;16;12;8
34240;PMS7003;20503;50.200;19.508;2023-06-14T23:56:45;14;12;8
